Terminal Aerodrome Forecast
Issued by NWS

Home | Current Version | Previous Version | Graphics & Text | Print | Product List | Glossary On
Versions: 1 2 3 4 5 6 7 8 9 10 11 12 13 14 15 16 17
861
FTUS41 KCLE 252324
TAFFDY
TAF
KFDY 252324Z 2600/2624 12008KT P6SM BKN250
     FM260600 16006KT P6SM BKN100
     FM261000 19008KT 6SM -SHRA OVC035
     FM261300 27012KT 5SM -SHRA OVC025
     FM261700 27012G20KT P6SM BKN100
     FM262200 27010KT P6SM SCT100=

USA.gov is the U.S. government's official web portal to all federal, state and local government web resources and services.